createdAt,value
2024-03-15T00:00:29.664Z,30.15
2024-03-15T00:03:16.765Z,29.00
2024-03-15T00:05:44.568Z,28.52
2024-03-15T00:08:12.056Z,30.25
2024-03-15T00:10:39.197Z,27.98
2024-03-15T00:13:06.122Z,29.05
2024-03-15T00:15:33.334Z,28.17
2024-03-15T00:18:00.176Z,29.98
2024-03-15T00:20:27.332Z,27.48
2024-03-15T00:22:54.199Z,26.92
2024-03-15T00:25:22.633Z,27.98
2024-03-15T00:27:49.991Z,27.17
2024-03-15T00:30:17.173Z,27.08
2024-03-15T00:32:44.056Z,26.20
2024-03-15T00:35:11.309Z,26.85
2024-03-15T00:37:38.269Z,26.27
2024-03-15T00:40:05.751Z,26.15
2024-03-15T00:42:34.207Z,24.75
2024-03-15T00:45:03.047Z,26.23
2024-03-15T00:47:31.181Z,26.40
2024-03-15T00:49:58.306Z,24.30
2024-03-15T00:52:25.059Z,26.30
2024-03-15T00:54:52.504Z,26.13
2024-03-15T00:57:19.738Z,25.67
2024-03-15T00:59:46.896Z,25.23
2024-03-15T01:02:13.672Z,25.77
2024-03-15T01:04:40.846Z,25.23
2024-03-15T01:07:08.639Z,24.73
2024-03-15T01:09:37.321Z,25.63
2024-03-15T01:12:04.312Z,26.00
2024-03-15T01:14:31.460Z,26.38
2024-03-15T01:16:58.336Z,25.40
2024-03-15T01:19:28.495Z,24.92
2024-03-15T01:21:56.020Z,27.20
2024-03-15T01:24:23.157Z,23.45
2024-03-15T01:26:49.943Z,24.08
2024-03-15T01:29:17.030Z,25.85
2024-03-15T01:31:46.640Z,26.67
2024-03-15T01:34:14.309Z,26.42
2024-03-15T01:36:41.144Z,26.35
2024-03-15T01:39:08.583Z,25.20
2024-03-15T01:41:36.046Z,24.75
2024-03-15T01:44:03.226Z,25.52
2024-03-15T01:46:30.420Z,26.27
2024-03-15T01:49:00.994Z,24.65
2024-03-15T01:51:28.776Z,25.20
2024-03-15T01:53:55.825Z,25.92
2024-03-15T01:56:24.136Z,26.83
2024-03-15T01:58:51.189Z,29.38
2024-03-15T02:01:18.137Z,26.45
2024-03-15T02:03:47.710Z,29.42
2024-03-15T02:06:14.651Z,28.67
2024-03-15T02:08:42.426Z,24.30
2024-03-15T02:11:09.238Z,26.95
2024-03-15T02:13:36.360Z,25.90
2024-03-15T02:16:03.282Z,27.35
2024-03-15T02:18:31.991Z,25.50
2024-03-15T02:20:58.833Z,25.73
2024-03-15T02:23:28.740Z,25.70
2024-03-15T02:25:57.277Z,25.98
2024-03-15T02:28:24.384Z,24.60
2024-03-15T02:30:51.401Z,26.00
2024-03-15T02:33:19.199Z,25.73
2024-03-15T02:35:46.625Z,26.38
2024-03-15T02:38:13.834Z,25.38
2024-03-15T02:40:40.566Z,26.85
2024-03-15T02:43:08.197Z,28.33
2024-03-15T02:45:36.203Z,27.38
2024-03-15T02:48:03.380Z,27.80
2024-03-15T02:50:30.399Z,27.10
2024-03-15T02:52:58.554Z,25.73
2024-03-15T02:55:27.300Z,26.35
2024-03-15T02:57:54.540Z,24.70
2024-03-15T03:00:21.474Z,26.67
2024-03-15T03:02:49.016Z,26.83
2024-03-15T03:05:17.658Z,27.60
2024-03-15T03:07:45.699Z,27.33
2024-03-15T03:10:12.600Z,26.15
2024-03-15T03:12:39.823Z,28.65
2024-03-15T03:15:07.767Z,26.65
2024-03-15T03:17:35.023Z,27.25
2024-03-15T03:20:01.971Z,27.48
2024-03-15T03:22:29.055Z,27.02
2024-03-15T03:24:55.938Z,26.75
2024-03-15T03:27:23.008Z,26.70
2024-03-15T03:29:49.876Z,26.42
2024-03-15T03:32:17.478Z,26.23
2024-03-15T03:34:45.112Z,26.35
2024-03-15T03:37:13.782Z,25.98
2024-03-15T03:39:40.629Z,26.23
2024-03-15T03:42:08.925Z,26.73
2024-03-15T03:44:35.814Z,25.52
2024-03-15T03:47:04.891Z,26.58
2024-03-15T03:49:31.699Z,24.63
2024-03-15T03:51:59.064Z,25.63
2024-03-15T03:54:25.988Z,25.50
2024-03-15T03:56:53.110Z,26.27
2024-03-15T03:59:19.896Z,25.67
2024-03-15T04:01:47.033Z,26.35
2024-03-15T04:04:13.882Z,27.13
2024-03-15T04:06:46.859Z,25.88
2024-03-15T04:09:13.795Z,27.98
2024-03-15T04:11:41.313Z,26.33
2024-03-15T04:14:08.139Z,27.75
2024-03-15T04:16:35.583Z,25.70
2024-03-15T04:19:04.235Z,26.45
2024-03-15T04:21:32.267Z,27.40
2024-03-15T04:23:59.778Z,26.08
2024-03-15T04:26:28.200Z,25.08
2024-03-15T04:28:55.906Z,27.88
2024-03-15T04:31:24.045Z,27.30
2024-03-15T04:33:53.660Z,25.23
2024-03-15T04:36:23.590Z,25.58
2024-03-15T04:38:50.399Z,26.40
2024-03-15T04:41:21.800Z,27.58
2024-03-15T04:43:48.900Z,27.15
2024-03-15T04:46:16.000Z,26.27
2024-03-15T04:48:44.566Z,26.63
2024-03-15T04:51:11.714Z,25.67
2024-03-15T04:53:38.957Z,25.90
2024-03-15T04:56:06.349Z,24.42
2024-03-15T04:58:33.988Z,23.65
2024-03-15T05:01:02.420Z,22.83
2024-03-15T05:03:29.490Z,25.98
2024-03-15T05:05:56.667Z,24.35
2024-03-15T05:08:23.529Z,25.63
2024-03-15T05:10:50.717Z,25.98
2024-03-15T05:13:17.596Z,24.48
2024-03-15T05:15:44.741Z,25.98
2024-03-15T05:18:11.772Z,26.83
2024-03-15T05:20:40.433Z,25.85
2024-03-15T05:23:08.193Z,25.63
2024-03-15T05:25:37.001Z,27.10
2024-03-15T05:28:04.009Z,26.80
2024-03-15T05:30:31.685Z,27.58
2024-03-15T05:32:58.630Z,26.75
2024-03-15T05:35:25.899Z,27.45
2024-03-15T05:37:53.019Z,25.80
2024-03-15T05:40:22.308Z,26.38
2024-03-15T05:42:49.497Z,28.08
2024-03-15T05:45:18.054Z,28.20
2024-03-15T05:47:45.164Z,28.20
2024-03-15T05:50:12.525Z,26.73
2024-03-15T05:52:40.229Z,26.02
2024-03-15T05:55:09.946Z,26.42
2024-03-15T05:57:36.900Z,28.52
2024-03-15T06:00:13.768Z,25.88
2024-03-15T06:02:43.389Z,27.17
2024-03-15T06:05:10.764Z,26.90
2024-03-15T06:07:37.691Z,26.55
2024-03-15T06:10:05.812Z,26.60
2024-03-15T06:12:32.986Z,27.20
2024-03-15T06:15:00.390Z,26.58
2024-03-15T06:17:27.649Z,27.50
2024-03-15T06:19:57.144Z,27.30
2024-03-15T06:22:25.257Z,27.83
2024-03-15T06:24:53.503Z,27.85
2024-03-15T06:27:21.740Z,27.90
2024-03-15T06:29:54.078Z,25.88
2024-03-15T06:32:27.376Z,28.23
2024-03-15T06:34:54.964Z,27.63
2024-03-15T06:37:23.839Z,28.02
2024-03-15T06:39:56.911Z,26.35
2024-03-15T06:42:36.695Z,26.02
2024-03-15T06:45:13.438Z,27.08
2024-03-15T06:47:40.602Z,27.75
2024-03-15T06:50:21.948Z,27.98
2024-03-15T06:52:49.167Z,27.60
2024-03-15T06:55:18.616Z,27.63
2024-03-15T06:57:46.703Z,29.00
2024-03-15T07:00:15.637Z,28.58
2024-03-15T07:02:44.196Z,26.95
2024-03-15T07:05:15.326Z,26.67
2024-03-15T07:07:42.657Z,28.00
2024-03-15T07:10:11.769Z,28.52
2024-03-15T07:12:40.751Z,28.98
2024-03-15T07:15:11.017Z,26.88
2024-03-15T07:17:38.606Z,27.90
2024-03-15T07:20:09.438Z,27.48
2024-03-15T07:22:37.309Z,28.50
2024-03-15T07:25:06.846Z,27.52
2024-03-15T07:27:34.365Z,27.88
2024-03-15T07:30:01.641Z,27.80
2024-03-15T07:32:31.674Z,28.20
2024-03-15T07:34:59.051Z,26.88
2024-03-15T07:37:26.092Z,25.75
2024-03-15T07:39:56.600Z,26.75
2024-03-15T07:42:23.890Z,27.48
2024-03-15T07:44:51.166Z,27.33
2024-03-15T07:47:19.363Z,25.88
2024-03-15T07:49:46.822Z,25.65
2024-03-15T07:52:13.860Z,25.50
2024-03-15T07:54:41.391Z,26.52
2024-03-15T07:57:10.457Z,25.30
2024-03-15T07:59:37.853Z,25.83
2024-03-15T08:02:04.996Z,25.13
2024-03-15T08:04:34.627Z,26.25
2024-03-15T08:07:02.281Z,24.40
2024-03-15T08:09:30.159Z,24.40
2024-03-15T08:11:57.296Z,23.88
2024-03-15T08:14:24.694Z,25.13
2024-03-15T08:16:51.823Z,23.08
2024-03-15T08:19:20.043Z,23.38
2024-03-15T08:21:47.369Z,23.00
2024-03-15T08:24:14.724Z,22.80
2024-03-15T08:26:41.591Z,22.90
2024-03-15T08:29:10.369Z,21.75
2024-03-15T08:31:37.640Z,20.90
2024-03-15T08:34:05.584Z,21.08
2024-03-15T08:36:38.673Z,18.67
2024-03-15T08:39:06.766Z,18.25
2024-03-15T08:41:33.621Z,18.13
2024-03-15T08:44:00.804Z,18.60
2024-03-15T08:46:30.918Z,18.20
2024-03-15T08:48:58.900Z,17.83
2024-03-15T08:51:25.814Z,16.52
2024-03-15T08:53:53.722Z,17.38
2024-03-15T08:56:20.909Z,16.13
2024-03-15T08:58:50.517Z,16.17
2024-03-15T09:01:19.786Z,16.00
2024-03-15T09:03:48.786Z,14.80
2024-03-15T09:06:17.318Z,15.43
2024-03-15T09:08:52.362Z,14.20
2024-03-15T09:11:19.524Z,14.15
2024-03-15T09:13:49.470Z,14.23
2024-03-15T09:16:18.033Z,13.73
2024-03-15T09:18:45.493Z,12.70
2024-03-15T09:21:12.503Z,15.00
2024-03-15T09:23:39.920Z,14.10
2024-03-15T09:26:08.515Z,13.45
2024-03-15T09:28:41.487Z,13.57
2024-03-15T09:31:18.550Z,12.68
2024-03-15T09:33:59.340Z,14.10
2024-03-15T09:36:26.530Z,14.45
2024-03-15T09:38:55.452Z,13.90
2024-03-15T09:41:23.089Z,14.95
2024-03-15T09:43:51.147Z,13.75
2024-03-15T09:46:18.363Z,12.18
2024-03-15T09:48:46.099Z,13.55
2024-03-15T09:51:17.903Z,12.98
2024-03-15T09:53:48.117Z,12.65
2024-03-15T09:56:16.138Z,11.63
2024-03-15T09:58:47.915Z,11.50
2024-03-15T10:01:14.820Z,10.13
2024-03-15T10:03:51.324Z,10.65
2024-03-15T10:06:18.978Z,10.15
2024-03-15T10:08:46.213Z,10.93
2024-03-15T10:11:13.304Z,9.30
2024-03-15T10:13:40.526Z,9.63
2024-03-15T10:16:10.363Z,8.65
2024-03-15T10:18:40.675Z,9.57
2024-03-15T10:21:08.264Z,9.00
2024-03-15T10:23:35.576Z,7.97
2024-03-15T10:26:02.634Z,8.25
2024-03-15T10:28:29.940Z,8.20
2024-03-15T10:30:57.204Z,8.18
2024-03-15T10:33:24.654Z,7.50
2024-03-15T10:35:51.532Z,7.95
2024-03-15T10:38:18.742Z,7.35
2024-03-15T10:40:46.128Z,7.75
2024-03-15T10:43:13.547Z,7.40
2024-03-15T10:45:49.613Z,8.18
2024-03-15T10:48:19.289Z,6.80
2024-03-15T10:50:46.624Z,6.75
2024-03-15T10:53:18.457Z,7.13
2024-03-15T10:55:45.288Z,7.32
2024-03-15T10:58:12.525Z,6.68
2024-03-15T11:00:40.048Z,6.38
2024-03-15T11:03:22.708Z,6.05
2024-03-15T11:05:50.895Z,5.65
2024-03-15T11:08:21.379Z,6.22
2024-03-15T11:10:56.273Z,5.60
2024-03-15T11:13:27.122Z,5.10
2024-03-15T11:15:54.406Z,5.63
2024-03-15T11:18:21.858Z,5.07
2024-03-15T11:20:50.881Z,6.45
2024-03-15T11:23:19.333Z,5.88
2024-03-15T11:26:01.671Z,5.38
2024-03-15T11:28:30.324Z,5.63
2024-03-15T11:30:57.767Z,5.35
2024-03-15T11:33:29.211Z,6.18
2024-03-15T11:35:58.035Z,5.65
2024-03-15T11:38:25.234Z,5.35
2024-03-15T11:40:57.248Z,6.25
2024-03-15T11:43:24.529Z,6.45
2024-03-15T11:45:51.927Z,5.70
2024-03-15T11:48:23.193Z,5.97
2024-03-15T11:50:50.953Z,6.20
2024-03-15T11:53:19.852Z,6.93
2024-03-15T11:55:50.018Z,6.43
2024-03-15T11:58:17.804Z,6.20
2024-03-15T12:00:52.091Z,6.50
2024-03-15T12:03:23.878Z,7.20
2024-03-15T12:05:52.329Z,6.05
2024-03-15T12:08:23.660Z,6.43
2024-03-15T12:10:51.208Z,6.25
2024-03-15T12:13:22.027Z,6.40
2024-03-15T12:15:50.069Z,6.40
2024-03-15T12:18:21.562Z,5.65
2024-03-15T12:20:49.109Z,5.82
2024-03-15T12:23:16.827Z,7.20
2024-03-15T12:25:43.749Z,6.18
2024-03-15T12:28:14.956Z,5.97
2024-03-15T12:30:46.017Z,5.93
2024-03-15T12:33:13.607Z,5.97
2024-03-15T12:35:40.972Z,6.15
2024-03-15T12:38:11.894Z,5.50
2024-03-15T12:40:43.905Z,6.82
2024-03-15T12:43:12.073Z,5.60
2024-03-15T12:45:42.163Z,6.05
2024-03-15T12:48:10.477Z,5.15
2024-03-15T12:50:37.749Z,5.22
2024-03-15T12:53:06.783Z,4.68
2024-03-15T12:55:33.692Z,4.80
2024-03-15T12:58:01.058Z,6.32
2024-03-15T13:00:31.369Z,5.85
2024-03-15T13:02:59.291Z,5.68
2024-03-15T13:05:26.989Z,5.38
2024-03-15T13:07:54.363Z,4.97
2024-03-15T13:10:21.321Z,4.60
2024-03-15T13:12:51.755Z,3.88
2024-03-15T13:15:19.206Z,4.78
2024-03-15T13:17:47.147Z,4.70
2024-03-15T13:20:17.240Z,4.30
2024-03-15T13:22:44.860Z,4.93
2024-03-15T13:25:29.365Z,5.97
2024-03-15T13:28:02.622Z,5.05
2024-03-15T13:30:29.511Z,5.63
2024-03-15T13:32:59.689Z,6.20
2024-03-15T13:35:28.906Z,6.28
2024-03-15T13:37:55.985Z,6.20
2024-03-15T13:40:23.782Z,5.95
2024-03-15T13:42:51.994Z,4.80
2024-03-15T13:45:20.020Z,5.20
2024-03-15T13:47:52.188Z,5.10
2024-03-15T13:50:20.655Z,5.00
2024-03-15T13:52:48.239Z,4.03
2024-03-15T13:55:15.251Z,4.53
2024-03-15T13:57:43.187Z,4.13
2024-03-15T14:00:34.002Z,5.25
2024-03-15T14:03:05.381Z,3.65
2024-03-15T14:05:37.092Z,4.47
2024-03-15T14:08:10.505Z,4.15
2024-03-15T14:10:38.709Z,4.35
2024-03-15T14:13:09.162Z,4.20
2024-03-15T14:15:40.309Z,4.25
2024-03-15T14:18:09.246Z,3.97
2024-03-15T14:20:36.887Z,4.18
2024-03-15T14:23:04.457Z,4.80
2024-03-15T14:25:33.718Z,4.47
2024-03-15T14:28:08.697Z,5.45
2024-03-15T14:30:37.519Z,4.78
2024-03-15T14:33:08.776Z,5.95
2024-03-15T14:35:36.018Z,5.55
2024-03-15T14:38:05.896Z,5.90
2024-03-15T14:40:36.580Z,5.35
2024-03-15T14:43:04.740Z,4.85
2024-03-15T14:45:32.665Z,4.28
2024-03-15T14:48:06.872Z,4.55
2024-03-15T14:50:40.395Z,4.97
2024-03-15T14:53:07.285Z,4.45
2024-03-15T14:55:42.777Z,4.97
2024-03-15T14:58:13.534Z,5.43
2024-03-15T15:00:42.614Z,5.40
2024-03-15T15:03:10.409Z,4.88
2024-03-15T15:05:38.614Z,5.38
2024-03-15T15:08:07.286Z,5.20
2024-03-15T15:10:41.777Z,5.97
2024-03-15T15:13:11.189Z,5.57
2024-03-15T15:15:39.970Z,6.10
2024-03-15T15:18:08.373Z,6.18
2024-03-15T15:20:35.574Z,5.88
2024-03-15T15:23:06.993Z,6.45
2024-03-15T15:25:36.463Z,6.82
2024-03-15T15:28:04.056Z,6.72
2024-03-15T15:30:33.757Z,6.85
2024-03-15T15:33:00.990Z,7.97
2024-03-15T15:35:28.780Z,7.22
2024-03-15T15:37:56.217Z,7.00
2024-03-15T15:40:30.780Z,7.80
2024-03-15T15:45:32.957Z,6.22
2024-03-15T15:48:01.405Z,7.50
2024-03-15T15:50:29.643Z,7.75
2024-03-15T15:52:56.524Z,6.55
2024-03-15T15:55:24.370Z,7.40
2024-03-15T15:57:55.426Z,7.72
2024-03-15T16:00:23.615Z,8.85
2024-03-15T16:02:51.138Z,9.65
2024-03-15T16:05:18.726Z,10.02
2024-03-15T16:07:46.352Z,10.00
2024-03-15T16:10:14.993Z,11.27
2024-03-15T16:12:44.435Z,11.15
2024-03-15T16:15:12.046Z,10.32
2024-03-15T16:17:39.016Z,10.30
2024-03-15T16:20:06.524Z,9.73
2024-03-15T16:22:34.738Z,11.07
2024-03-15T16:25:03.606Z,9.13
2024-03-15T16:27:30.884Z,9.52
2024-03-15T16:29:57.960Z,8.43
2024-03-15T16:32:25.200Z,9.10
2024-03-15T16:34:52.265Z,9.13
2024-03-15T16:37:19.024Z,9.18
2024-03-15T16:39:46.301Z,9.00
2024-03-15T16:42:15.250Z,9.38
2024-03-15T16:44:44.662Z,9.65
2024-03-15T16:47:11.772Z,10.32
2024-03-15T16:49:38.924Z,9.30
2024-03-15T16:52:06.775Z,11.80
2024-03-15T16:54:34.349Z,13.27
2024-03-15T16:57:01.179Z,12.15
2024-03-15T16:59:28.329Z,10.35
2024-03-15T17:01:55.570Z,10.18
2024-03-15T17:04:22.775Z,11.95
2024-03-15T17:06:50.747Z,11.38
2024-03-15T17:09:19.423Z,13.63
2024-03-15T17:11:46.360Z,13.15
2024-03-15T17:14:14.065Z,14.90
2024-03-15T17:16:40.872Z,14.48
2024-03-15T17:19:08.248Z,13.32
2024-03-15T17:21:35.053Z,12.30
2024-03-15T17:24:02.212Z,11.65
2024-03-15T17:26:29.127Z,10.80
2024-03-15T17:28:56.234Z,12.40
2024-03-15T17:31:23.191Z,13.45
2024-03-15T17:33:50.461Z,12.38
2024-03-15T17:36:22.446Z,15.05
2024-03-15T17:38:49.911Z,13.77
2024-03-15T17:41:16.810Z,14.02
2024-03-15T17:43:43.929Z,13.60
2024-03-15T17:46:11.283Z,13.88
2024-03-15T17:48:39.664Z,13.00
2024-03-15T17:51:07.689Z,12.35
2024-03-15T17:53:34.759Z,11.43
2024-03-15T17:56:01.522Z,11.25
2024-03-15T17:58:29.537Z,11.90
2024-03-15T18:00:59.309Z,11.60
2024-03-15T18:03:26.677Z,11.30
2024-03-15T18:05:53.587Z,11.18
2024-03-15T18:08:20.746Z,11.07
2024-03-15T18:10:47.528Z,11.57
2024-03-15T18:13:15.734Z,9.93
2024-03-15T18:15:42.573Z,10.18
2024-03-15T18:18:12.491Z,10.48
2024-03-15T18:20:39.652Z,10.80
2024-03-15T18:23:06.888Z,10.07
2024-03-15T18:25:33.666Z,10.95
2024-03-15T18:28:01.254Z,11.48
2024-03-15T18:30:28.222Z,11.70
2024-03-15T18:32:55.376Z,11.00
2024-03-15T18:35:22.172Z,9.93
2024-03-15T18:37:49.293Z,11.30
2024-03-15T18:40:16.161Z,11.50
2024-03-15T18:42:44.355Z,10.27
2024-03-15T18:45:11.432Z,9.93
2024-03-15T18:47:43.487Z,9.95
2024-03-15T18:50:14.420Z,10.02
2024-03-15T18:52:41.679Z,9.73
2024-03-15T18:55:15.438Z,9.07
2024-03-15T18:57:42.943Z,9.47
2024-03-15T19:00:14.522Z,9.50
2024-03-15T19:02:42.885Z,9.88
2024-03-15T19:05:10.403Z,9.90
2024-03-15T19:07:38.224Z,10.32
2024-03-15T19:10:08.576Z,11.80
2024-03-15T19:12:36.491Z,11.07
2024-03-15T19:15:07.633Z,10.93
2024-03-15T19:17:41.221Z,11.27
2024-03-15T19:20:09.915Z,11.10
2024-03-15T19:22:37.406Z,11.43
2024-03-15T19:25:06.672Z,11.15
2024-03-15T19:27:34.027Z,10.63
2024-03-15T19:30:00.973Z,10.75
2024-03-15T19:32:32.318Z,11.25
2024-03-15T19:35:00.522Z,10.73
2024-03-15T19:37:28.109Z,11.18
2024-03-15T19:39:55.052Z,9.50
2024-03-15T19:42:22.346Z,12.30
2024-03-15T19:44:49.247Z,12.20
2024-03-15T19:47:16.397Z,10.75
2024-03-15T19:49:43.249Z,11.20
2024-03-15T19:52:10.364Z,11.52
2024-03-15T19:54:37.229Z,11.32
2024-03-15T19:57:05.147Z,11.35
2024-03-15T19:59:34.893Z,11.00
2024-03-15T20:02:03.941Z,10.73
2024-03-15T20:04:31.825Z,10.77
2024-03-15T20:07:00.843Z,9.98
2024-03-15T20:09:28.308Z,11.07
2024-03-15T20:11:55.558Z,11.68
2024-03-15T20:14:22.402Z,12.32
2024-03-15T20:16:51.615Z,11.55
2024-03-15T20:19:21.018Z,12.65
2024-03-15T20:21:48.280Z,11.90
2024-03-15T20:24:18.669Z,11.35
2024-03-15T20:26:49.468Z,12.50
2024-03-15T20:29:17.124Z,12.20
2024-03-15T20:31:44.722Z,12.57
2024-03-15T20:34:11.639Z,11.30
2024-03-15T20:36:39.193Z,11.27
2024-03-15T20:39:06.969Z,11.25
2024-03-15T20:41:34.690Z,11.45
2024-03-15T20:44:01.465Z,10.35
2024-03-15T20:46:28.779Z,10.98
2024-03-15T20:48:57.855Z,10.63
2024-03-15T20:51:26.017Z,10.32
2024-03-15T20:53:53.346Z,10.77
2024-03-15T20:56:21.217Z,11.02
2024-03-15T20:58:48.658Z,12.40
2024-03-15T21:01:15.873Z,11.73
2024-03-15T21:03:43.042Z,12.77
2024-03-15T21:06:12.729Z,12.05
2024-03-15T21:08:39.618Z,10.93
2024-03-15T21:11:06.711Z,11.82
2024-03-15T21:13:34.776Z,12.18
2024-03-15T21:16:02.433Z,11.23
2024-03-15T21:18:29.454Z,11.65
2024-03-15T21:20:57.116Z,11.88
2024-03-15T21:23:23.935Z,11.82
2024-03-15T21:25:51.694Z,11.65
2024-03-15T21:28:18.499Z,10.65
2024-03-15T21:30:45.607Z,11.55
2024-03-15T21:33:12.602Z,11.85
2024-03-15T21:35:39.799Z,10.35
2024-03-15T21:38:12.352Z,11.02
2024-03-15T21:40:39.406Z,11.35
2024-03-15T21:43:08.953Z,10.38
2024-03-15T21:45:36.227Z,11.73
2024-03-15T21:48:04.434Z,11.52
2024-03-15T21:50:31.673Z,10.90
2024-03-15T21:52:58.529Z,11.30
2024-03-15T21:55:25.700Z,12.75
2024-03-15T21:57:52.574Z,12.32
2024-03-15T22:00:27.445Z,13.07
2024-03-15T22:02:56.639Z,11.00
2024-03-15T22:05:23.817Z,11.55
2024-03-15T22:07:50.676Z,12.13
2024-03-15T22:10:17.909Z,11.95
2024-03-15T22:12:48.198Z,10.70
2024-03-15T22:15:17.504Z,11.00
2024-03-15T22:17:44.603Z,11.15
2024-03-15T22:20:12.897Z,11.60
2024-03-15T22:22:39.924Z,11.05
2024-03-15T22:25:19.139Z,10.80
2024-03-15T22:27:54.284Z,10.95
2024-03-15T22:30:21.728Z,10.48
2024-03-15T22:32:48.789Z,11.88
2024-03-15T22:35:16.039Z,9.88
2024-03-15T22:37:42.917Z,11.20
2024-03-15T22:40:15.347Z,11.45
2024-03-15T22:42:42.726Z,11.75
2024-03-15T22:45:09.983Z,13.23
2024-03-15T22:47:37.875Z,10.77
2024-03-15T22:50:09.281Z,11.73
2024-03-15T22:52:36.218Z,11.73
2024-03-15T22:55:03.641Z,12.95
2024-03-15T22:57:30.714Z,11.75
2024-03-15T22:59:57.973Z,12.18
2024-03-15T23:02:24.837Z,11.85
2024-03-15T23:04:51.997Z,12.20
2024-03-15T23:07:22.941Z,12.45
2024-03-15T23:09:51.114Z,12.25
2024-03-15T23:12:18.872Z,11.68
2024-03-15T23:14:49.000Z,11.98
2024-03-15T23:17:15.802Z,11.80
2024-03-15T23:19:44.188Z,11.93
2024-03-15T23:22:11.859Z,11.25
2024-03-15T23:24:39.479Z,12.05
2024-03-15T23:27:06.369Z,11.63
2024-03-15T23:29:33.730Z,12.07
2024-03-15T23:32:00.843Z,11.25
2024-03-15T23:34:28.166Z,11.23
2024-03-15T23:36:54.988Z,11.30
2024-03-15T23:39:22.626Z,11.40
2024-03-15T23:41:49.708Z,11.10
2024-03-15T23:44:16.863Z,11.15
2024-03-15T23:46:44.809Z,11.07
2024-03-15T23:49:13.844Z,10.70
2024-03-15T23:51:41.125Z,10.57
2024-03-15T23:54:09.745Z,10.45
2024-03-15T23:56:36.604Z,10.65
2024-03-15T23:59:03.752Z,11.30
